Time;durP1;ratioP1;P1;durP2;ratioP2;P2;SDS_P1;SDS_P2;PMS_P1;PMS_P2;Temp;Humidity;BMP_temperature;BMP_pressure;BME280_temperature;BME280_humidity;BME280_pressure;Samples;Min_cycle;Max_cycle;Signal;HPM_P1;HPM_P2
2021/01/07 00:00:28;;;;;;;9.43;7.73;;;2.9;99.9;;;;;;;;;
2021/01/07 00:01:02;;;;;;;9.43;7.73;;;2.9;99.9;;;;;;;;;
2021/01/07 00:02:02;;;;;;;10.23;7.2;;;2.9;99.9;;;;;;;;;
2021/01/07 00:02:41;;;;;;;9.9;7.5;;;2.8;99.9;;;;;;;;;
2021/01/07 00:03:02;;;;;;;9.9;7.5;;;2.8;99.9;;;;;;;;;
2021/01/07 00:03:17;;;;;;;9.9;7.5;;;2.8;99.9;;;;;;;;;
2021/01/07 00:04:02;;;;;;;9.03;6.8;;;2.8;99.9;;;;;;;;;
2021/01/07 00:04:13;;;;;;;9.03;6.8;;;2.8;99.9;;;;;;;;;
2021/01/07 00:04:54;;;;;;;8.37;7.47;;;2.9;99.9;;;;;;;;;
2021/01/07 00:05:02;;;;;;;8.37;7.47;;;2.9;99.9;;;;;;;;;
2021/01/07 00:05:14;;;;;;;8.37;7.47;;;2.9;99.9;;;;;;;;;
2021/01/07 00:05:30;;;;;;;8.9;8;;;2.9;99.9;;;;;;;;;
2021/01/07 00:06:02;;;;;;;8.9;8;;;2.9;99.9;;;;;;;;;
2021/01/07 00:06:16;;;;;;;8.9;8;;;2.9;99.9;;;;;;;;;
2021/01/07 00:06:26;;;;;;;8.9;8;;;2.9;99.9;;;;;;;;;
2021/01/07 00:07:02;;;;;;;9.57;7.67;;;2.9;99.9;;;;;;;;;
2021/01/07 00:07:07;;;;;;;9.57;7.67;;;2.9;99.9;;;;;;;;;
2021/01/07 00:07:17;;;;;;;9.57;7.67;;;2.9;99.9;;;;;;;;;
2021/01/07 00:07:27;;;;;;;9.57;7.67;;;2.9;99.9;;;;;;;;;
2021/01/07 00:07:43;;;;;;;10.83;8.3;;;2.9;99.9;;;;;;;;;
2021/01/07 00:08:02;;;;;;;10.83;8.3;;;2.9;99.9;;;;;;;;;
2021/01/07 00:08:14;;;;;;;10.83;8.3;;;2.9;99.9;;;;;;;;;
2021/01/07 00:08:29;;;;;;;8.43;7.4;;;2.8;99.9;;;;;;;;;
2021/01/07 00:08:39;;;;;;;8.43;7.4;;;2.8;99.9;;;;;;;;;
2021/01/07 00:09:02;;;;;;;8.43;7.4;;;2.8;99.9;;;;;;;;;
2021/01/07 00:09:15;;;;;;;8.43;7.4;;;2.8;99.9;;;;;;;;;
2021/01/07 00:09:30;;;;;;;10.17;7.3;;;2.9;99.9;;;;;;;;;
2021/01/07 00:09:41;;;;;;;10.17;7.3;;;2.9;99.9;;;;;;;;;
2021/01/07 00:09:56;;;;;;;10.17;7.3;;;2.9;99.9;;;;;;;;;
2021/01/07 00:10:02;;;;;;;10.17;7.3;;;2.9;99.9;;;;;;;;;
2021/01/07 00:10:16;;;;;;;10.17;7.3;;;2.9;99.9;;;;;;;;;
2021/01/07 00:10:27;;;;;;;10.17;7.3;;;2.9;99.9;;;;;;;;;
2021/01/07 00:10:43;;;;;;;8.83;7.6;;;2.8;99.9;;;;;;;;;
2021/01/07 00:10:52;;;;;;;8.83;7.6;;;2.8;99.9;;;;;;;;;
2021/01/07 00:11:02;;;;;;;8.83;7.6;;;2.8;99.9;;;;;;;;;
2021/01/07 00:11:13;;;;;;;8.83;7.6;;;2.8;99.9;;;;;;;;;
2021/01/07 00:11:28;;;;;;;8.83;7.6;;;2.8;99.9;;;;;;;;;
2021/01/07 00:11:43;;;;;;;9.63;7.97;;;2.8;99.9;;;;;;;;;
2021/01/07 00:11:56;;;;;;;9.63;7.97;;;2.8;99.9;;;;;;;;;
2021/01/07 00:12:02;;;;;;;9.63;7.97;;;2.8;99.9;;;;;;;;;
2021/01/07 00:12:09;;;;;;;9.63;7.97;;;2.8;99.9;;;;;;;;;
2021/01/07 00:12:14;;;;;;;9.63;7.97;;;2.8;99.9;;;;;;;;;
2021/01/07 00:12:30;;;;;;;9.8;7.5;;;2.8;99.9;;;;;;;;;
2021/01/07 00:12:40;;;;;;;9.8;7.5;;;2.8;99.9;;;;;;;;;
2021/01/07 00:12:55;;;;;;;9.8;7.5;;;2.8;99.9;;;;;;;;;
2021/01/07 00:13:02;;;;;;;9.8;7.5;;;2.8;99.9;;;;;;;;;
2021/01/07 00:13:05;;;;;;;9.8;7.5;;;2.8;99.9;;;;;;;;;
2021/01/07 00:13:16;;;;;;;9.8;7.5;;;2.8;99.9;;;;;;;;;
2021/01/07 00:13:26;;;;;;;9.8;7.5;;;2.8;99.9;;;;;;;;;
2021/01/07 00:13:41;;;;;;;10.67;7.03;;;2.8;99.9;;;;;;;;;
2021/01/07 00:13:57;;;;;;;10.67;7.03;;;2.8;99.9;;;;;;;;;
2021/01/07 00:14:02;;;;;;;10.67;7.03;;;2.8;99.9;;;;;;;;;
2021/01/07 00:14:07;;;;;;;10.67;7.03;;;2.8;99.9;;;;;;;;;
2021/01/07 00:14:12;;;;;;;10.67;7.03;;;2.8;99.9;;;;;;;;;
2021/01/07 00:14:27;;;;;;;10.67;7.03;;;2.8;99.9;;;;;;;;;
2021/01/07 00:14:43;;;;;;;8.97;7.53;;;2.9;99.9;;;;;;;;;
2021/01/07 00:14:53;;;;;;;8.97;7.53;;;2.9;99.9;;;;;;;;;
2021/01/07 00:15:02;;;;;;;8.97;7.53;;;2.9;99.9;;;;;;;;;
2021/01/07 00:15:08;;;;;;;8.97;7.53;;;2.9;99.9;;;;;;;;;
2021/01/07 00:15:13;;;;;;;8.97;7.53;;;2.9;99.9;;;;;;;;;
2021/01/07 00:15:29;;;;;;;8.97;7.53;;;2.9;99.9;;;;;;;;;
2021/01/07 00:15:39;;;;;;;8.93;7.37;;;2.9;99.9;;;;;;;;;
2021/01/07 00:15:54;;;;;;;8.93;7.37;;;2.9;99.9;;;;;;;;;
2021/01/07 00:16:02;;;;;;;8.93;7.37;;;2.9;99.9;;;;;;;;;
2021/01/07 00:16:10;;;;;;;8.93;7.37;;;2.9;99.9;;;;;;;;;
2021/01/07 00:16:15;;;;;;;8.93;7.37;;;2.9;99.9;;;;;;;;;
2021/01/07 00:16:25;;;;;;;8.93;7.37;;;2.9;99.9;;;;;;;;;
2021/01/07 00:16:40;;;;;;;10.1;7.63;;;2.9;99.9;;;;;;;;;
2021/01/07 00:16:56;;;;;;;10.1;7.63;;;2.9;99.9;;;;;;;;;
2021/01/07 00:17:02;;;;;;;10.1;7.63;;;2.9;99.9;;;;;;;;;
2021/01/07 00:17:06;;;;;;;10.1;7.63;;;2.9;99.9;;;;;;;;;
2021/01/07 00:17:16;;;;;;;10.1;7.63;;;2.9;99.9;;;;;;;;;
2021/01/07 00:17:26;;;;;;;10.1;7.63;;;2.9;99.9;;;;;;;;;
2021/01/07 00:17:42;;;;;;;7.8;7;;;2.8;99.9;;;;;;;;;
2021/01/07 00:17:52;;;;;;;7.8;7;;;2.8;99.9;;;;;;;;;
2021/01/07 00:18:02;;;;;;;7.8;7;;;2.8;99.9;;;;;;;;;
2021/01/07 00:18:07;;;;;;;7.8;7;;;2.8;99.9;;;;;;;;;
2021/01/07 00:18:13;;;;;;;7.8;7;;;2.8;99.9;;;;;;;;;
2021/01/07 00:18:28;;;;;;;7.8;7;;;2.8;99.9;;;;;;;;;
2021/01/07 00:18:38;;;;;;;8.97;7.6;;;2.8;99.9;;;;;;;;;
2021/01/07 00:18:54;;;;;;;8.97;7.6;;;2.8;99.9;;;;;;;;;
2021/01/07 00:19:01;;;;;;;8.97;7.6;;;2.8;99.9;;;;;;;;;
2021/01/07 00:19:09;;;;;;;8.97;7.6;;;2.8;99.9;;;;;;;;;
2021/01/07 00:19:14;;;;;;;8.97;7.6;;;2.8;99.9;;;;;;;;;
2021/01/07 00:19:29;;;;;;;8.97;7.6;;;2.8;99.9;;;;;;;;;
2021/01/07 00:19:40;;;;;;;13.3;7.77;;;2.8;99.9;;;;;;;;;
2021/01/07 00:19:55;;;;;;;13.3;7.77;;;2.8;99.9;;;;;;;;;
2021/01/07 00:20:02;;;;;;;13.3;7.77;;;2.8;99.9;;;;;;;;;
2021/01/07 00:20:05;;;;;;;13.3;7.77;;;2.8;99.9;;;;;;;;;
2021/01/07 00:20:15;;;;;;;13.3;7.77;;;2.8;99.9;;;;;;;;;
2021/01/07 00:20:26;;;;;;;13.3;7.77;;;2.8;99.9;;;;;;;;;
2021/01/07 00:20:41;;;;;;;10.23;7.13;;;2.9;99.9;;;;;;;;;
2021/01/07 00:20:51;;;;;;;10.23;7.13;;;2.9;99.9;;;;;;;;;
2021/01/07 00:21:02;;;;;;;10.23;7.13;;;2.9;99.9;;;;;;;;;
2021/01/07 00:21:07;;;;;;;10.23;7.13;;;2.9;99.9;;;;;;;;;
2021/01/07 00:21:12;;;;;;;10.23;7.13;;;2.9;99.9;;;;;;;;;
2021/01/07 00:21:27;;;;;;;10.23;7.13;;;2.9;99.9;;;;;;;;;
2021/01/07 00:21:42;;;;;;;8.77;6.8;;;2.9;99.9;;;;;;;;;
2021/01/07 00:21:53;;;;;;;8.77;6.8;;;2.9;99.9;;;;;;;;;
2021/01/07 00:22:02;;;;;;;8.77;6.8;;;2.9;99.9;;;;;;;;;
2021/01/07 00:22:08;;;;;;;8.77;6.8;;;2.9;99.9;;;;;;;;;
2021/01/07 00:22:18;;;;;;;8.77;6.8;;;2.9;99.9;;;;;;;;;
2021/01/07 00:22:29;;;;;;;8.77;6.8;;;2.9;99.9;;;;;;;;;
2021/01/07 00:22:39;;;;;;;10.93;7.43;;;3;99.9;;;;;;;;;
2021/01/07 00:22:54;;;;;;;10.93;7.43;;;3;99.9;;;;;;;;;
2021/01/07 00:23:02;;;;;;;10.93;7.43;;;3;99.9;;;;;;;;;
2021/01/07 00:23:04;;;;;;;10.93;7.43;;;3;99.9;;;;;;;;;
2021/01/07 00:23:15;;;;;;;10.93;7.43;;;3;99.9;;;;;;;;;
2021/01/07 00:23:25;;;;;;;10.93;7.43;;;3;99.9;;;;;;;;;
2021/01/07 00:23:40;;;;;;;8.73;7.23;;;3;99.9;;;;;;;;;
2021/01/07 00:23:56;;;;;;;8.73;7.23;;;3;99.9;;;;;;;;;
2021/01/07 00:24:01;;;;;;;8.73;7.23;;;3;99.9;;;;;;;;;
2021/01/07 00:24:06;;;;;;;8.73;7.23;;;3;99.9;;;;;;;;;
2021/01/07 00:24:16;;;;;;;8.73;7.23;;;3;99.9;;;;;;;;;
2021/01/07 00:24:31;;;;;;;8.73;7.23;;;3;99.9;;;;;;;;;
2021/01/07 00:24:42;;;;;;;8.87;6.77;;;3;99.9;;;;;;;;;
2021/01/07 00:24:52;;;;;;;8.87;6.77;;;3;99.9;;;;;;;;;
2021/01/07 00:25:02;;;;;;;8.87;6.77;;;3;99.9;;;;;;;;;
2021/01/07 00:25:07;;;;;;;8.87;6.77;;;3;99.9;;;;;;;;;
2021/01/07 00:25:12;;;;;;;8.87;6.77;;;3;99.9;;;;;;;;;
2021/01/07 00:25:28;;;;;;;8.87;6.77;;;3;99.9;;;;;;;;;
2021/01/07 00:25:38;;;;;;;8.8;6.9;;;3.1;99.9;;;;;;;;;
2021/01/07 00:25:53;;;;;;;8.8;6.9;;;3.1;99.9;;;;;;;;;
2021/01/07 00:26:02;;;;;;;8.8;6.9;;;3.1;99.9;;;;;;;;;
2021/01/07 00:26:09;;;;;;;8.8;6.9;;;3.1;99.9;;;;;;;;;
2021/01/07 00:26:14;;;;;;;8.8;6.9;;;3.1;99.9;;;;;;;;;
2021/01/07 00:26:29;;;;;;;8.8;6.9;;;3.1;99.9;;;;;;;;;
2021/01/07 00:26:45;;;;;;;9.8;7.33;;;3.1;99.9;;;;;;;;;
2021/01/07 00:26:55;;;;;;;9.8;7.33;;;3.1;99.9;;;;;;;;;
2021/01/07 00:27:02;;;;;;;9.8;7.33;;;3.1;99.9;;;;;;;;;
2021/01/07 00:27:05;;;;;;;9.8;7.33;;;3.1;99.9;;;;;;;;;
2021/01/07 00:27:15;;;;;;;9.8;7.33;;;3.1;99.9;;;;;;;;;
2021/01/07 00:27:26;;;;;;;9.8;7.33;;;3.1;99.9;;;;;;;;;
2021/01/07 00:27:41;;;;;;;8.2;6.73;;;3.1;99.9;;;;;;;;;
2021/01/07 00:27:51;;;;;;;8.2;6.73;;;3.1;99.9;;;;;;;;;
2021/01/07 00:28:03;;;;;;;8.2;6.73;;;3.1;99.9;;;;;;;;;
2021/01/07 00:28:07;;;;;;;8.2;6.73;;;3.1;99.9;;;;;;;;;
2021/01/07 00:28:17;;;;;;;8.2;6.73;;;3.1;99.9;;;;;;;;;
2021/01/07 00:28:27;;;;;;;8.2;6.73;;;3.1;99.9;;;;;;;;;
2021/01/07 00:28:42;;;;;;;9.57;7.17;;;2.9;99.9;;;;;;;;;
2021/01/07 00:28:58;;;;;;;9.57;7.17;;;2.9;99.9;;;;;;;;;
2021/01/07 00:29:01;;;;;;;9.57;7.17;;;2.9;99.9;;;;;;;;;
2021/01/07 00:29:08;;;;;;;9.57;7.17;;;2.9;99.9;;;;;;;;;
2021/01/07 00:29:13;;;;;;;9.57;7.17;;;2.9;99.9;;;;;;;;;
2021/01/07 00:29:29;;;;;;;9.57;7.17;;;2.9;99.9;;;;;;;;;
2021/01/07 00:29:39;;;;;;;7.33;5.87;;;3;99.9;;;;;;;;;
2021/01/07 00:29:54;;;;;;;7.33;5.87;;;3;99.9;;;;;;;;;
2021/01/07 00:30:02;;;;;;;7.33;5.87;;;3;99.9;;;;;;;;;
2021/01/07 00:30:04;;;;;;;7.33;5.87;;;3;99.9;;;;;;;;;
2021/01/07 00:30:15;;;;;;;7.33;5.87;;;3;99.9;;;;;;;;;
2021/01/07 00:30:30;;;;;;;7.33;5.87;;;3;99.9;;;;;;;;;
2021/01/07 00:30:40;;;;;;;8.3;6.8;;;2.9;99.9;;;;;;;;;
2021/01/07 00:30:55;;;;;;;8.3;6.8;;;2.9;99.9;;;;;;;;;
2021/01/07 00:31:01;;;;;;;8.3;6.8;;;2.9;99.9;;;;;;;;;
2021/01/07 00:31:11;;;;;;;8.3;6.8;;;2.9;99.9;;;;;;;;;
2021/01/07 00:31:16;;;;;;;8.3;6.8;;;2.9;99.9;;;;;;;;;
2021/01/07 00:31:26;;;;;;;8.3;6.8;;;2.9;99.9;;;;;;;;;
2021/01/07 00:31:42;;;;;;;8.43;6.5;;;2.9;99.9;;;;;;;;;
2021/01/07 00:31:52;;;;;;;8.43;6.5;;;2.9;99.9;;;;;;;;;
2021/01/07 00:32:02;;;;;;;8.43;6.5;;;2.9;99.9;;;;;;;;;
2021/01/07 00:32:07;;;;;;;8.43;6.5;;;2.9;99.9;;;;;;;;;
2021/01/07 00:32:17;;;;;;;8.43;6.5;;;2.9;99.9;;;;;;;;;
2021/01/07 00:32:28;;;;;;;8.43;6.5;;;2.9;99.9;;;;;;;;;
2021/01/07 00:32:43;;;;;;;10.5;7.03;;;2.9;99.9;;;;;;;;;
2021/01/07 00:32:53;;;;;;;10.5;7.03;;;2.9;99.9;;;;;;;;;
2021/01/07 00:33:02;;;;;;;10.5;7.03;;;2.9;99.9;;;;;;;;;
2021/01/07 00:33:09;;;;;;;10.5;7.03;;;2.9;99.9;;;;;;;;;
2021/01/07 00:33:14;;;;;;;10.5;7.03;;;2.9;99.9;;;;;;;;;
2021/01/07 00:33:29;;;;;;;10.5;7.03;;;2.9;99.9;;;;;;;;;
2021/01/07 00:33:39;;;;;;;7.97;6.03;;;2.9;99.9;;;;;;;;;
2021/01/07 00:33:55;;;;;;;7.97;6.03;;;2.9;99.9;;;;;;;;;
2021/01/07 00:34:02;;;;;;;7.97;6.03;;;2.9;99.9;;;;;;;;;
2021/01/07 00:34:05;;;;;;;7.97;6.03;;;2.9;99.9;;;;;;;;;
2021/01/07 00:34:15;;;;;;;7.97;6.03;;;2.9;99.9;;;;;;;;;
2021/01/07 00:34:31;;;;;;;7.97;6.03;;;2.9;99.9;;;;;;;;;
2021/01/07 00:34:41;;;;;;;7.47;6.43;;;2.8;99.9;;;;;;;;;
2021/01/07 00:34:56;;;;;;;7.47;6.43;;;2.8;99.9;;;;;;;;;
2021/01/07 00:35:02;;;;;;;7.47;6.43;;;2.8;99.9;;;;;;;;;
2021/01/07 00:35:06;;;;;;;7.47;6.43;;;2.8;99.9;;;;;;;;;
2021/01/07 00:35:17;;;;;;;7.47;6.43;;;2.8;99.9;;;;;;;;;
2021/01/07 00:35:27;;;;;;;7.47;6.43;;;2.8;99.9;;;;;;;;;
2021/01/07 00:35:42;;;;;;;8.27;6.3;;;2.8;99.9;;;;;;;;;
2021/01/07 00:35:52;;;;;;;8.27;6.3;;;2.8;99.9;;;;;;;;;
2021/01/07 00:36:01;;;;;;;8.27;6.3;;;2.8;99.9;;;;;;;;;
2021/01/07 00:36:08;;;;;;;8.27;6.3;;;2.8;99.9;;;;;;;;;
2021/01/07 00:36:13;;;;;;;8.27;6.3;;;2.8;99.9;;;;;;;;;
2021/01/07 00:36:29;;;;;;;8.27;6.3;;;2.8;99.9;;;;;;;;;
2021/01/07 00:36:44;;;;;;;7.57;6.33;;;2.9;99.9;;;;;;;;;
2021/01/07 00:36:54;;;;;;;7.57;6.33;;;2.9;99.9;;;;;;;;;
2021/01/07 00:37:02;;;;;;;7.57;6.33;;;2.9;99.9;;;;;;;;;
2021/01/07 00:37:09;;;;;;;7.57;6.33;;;2.9;99.9;;;;;;;;;
2021/01/07 00:37:14;;;;;;;7.57;6.33;;;2.9;99.9;;;;;;;;;
2021/01/07 00:37:30;;;;;;;7.57;6.33;;;2.9;99.9;;;;;;;;;
2021/01/07 00:37:40;;;;;;;7.73;6.23;;;2.9;99.9;;;;;;;;;
2021/01/07 00:37:55;;;;;;;7.73;6.23;;;2.9;99.9;;;;;;;;;
2021/01/07 00:38:02;;;;;;;7.73;6.23;;;2.9;99.9;;;;;;;;;
2021/01/07 00:38:06;;;;;;;7.73;6.23;;;2.9;99.9;;;;;;;;;
2021/01/07 00:38:16;;;;;;;7.73;6.23;;;2.9;99.9;;;;;;;;;
2021/01/07 00:38:26;;;;;;;7.73;6.23;;;2.9;99.9;;;;;;;;;
2021/01/07 00:38:41;;;;;;;7.57;5.8;;;2.9;99.9;;;;;;;;;
2021/01/07 00:38:57;;;;;;;7.57;5.8;;;2.9;99.9;;;;;;;;;
2021/01/07 00:39:01;;;;;;;7.57;5.8;;;2.9;99.9;;;;;;;;;
2021/01/07 00:39:07;;;;;;;7.57;5.8;;;2.9;99.9;;;;;;;;;
2021/01/07 00:39:12;;;;;;;7.57;5.8;;;2.9;99.9;;;;;;;;;
2021/01/07 00:39:27;;;;;;;7.57;5.8;;;2.9;99.9;;;;;;;;;
2021/01/07 00:39:43;;;;;;;6.93;5.73;;;2.8;99.9;;;;;;;;;
2021/01/07 00:39:53;;;;;;;6.93;5.73;;;2.8;99.9;;;;;;;;;
2021/01/07 00:40:02;;;;;;;6.93;5.73;;;2.8;99.9;;;;;;;;;
2021/01/07 00:40:09;;;;;;;6.93;5.73;;;2.8;99.9;;;;;;;;;
2021/01/07 00:40:14;;;;;;;6.93;5.73;;;2.8;99.9;;;;;;;;;
2021/01/07 00:40:29;;;;;;;6.93;5.73;;;2.8;99.9;;;;;;;;;
2021/01/07 00:40:39;;;;;;;9.33;6.2;;;2.8;99.9;;;;;;;;;
2021/01/07 00:40:55;;;;;;;9.33;6.2;;;2.8;99.9;;;;;;;;;
2021/01/07 00:41:01;;;;;;;9.33;6.2;;;2.8;99.9;;;;;;;;;
2021/01/07 00:41:10;;;;;;;9.33;6.2;;;2.8;99.9;;;;;;;;;
2021/01/07 00:41:15;;;;;;;9.33;6.2;;;2.8;99.9;;;;;;;;;
2021/01/07 00:41:25;;;;;;;9.33;6.2;;;2.8;99.9;;;;;;;;;
2021/01/07 00:41:41;;;;;;;9.67;6.4;;;2.9;99.9;;;;;;;;;
2021/01/07 00:41:56;;;;;;;9.67;6.4;;;2.9;99.9;;;;;;;;;
2021/01/07 00:42:02;;;;;;;9.67;6.4;;;2.9;99.9;;;;;;;;;
2021/01/07 00:42:06;;;;;;;9.67;6.4;;;2.9;99.9;;;;;;;;;
2021/01/07 00:42:17;;;;;;;9.67;6.4;;;2.9;99.9;;;;;;;;;
2021/01/07 00:42:27;;;;;;;9.67;6.4;;;2.9;99.9;;;;;;;;;
2021/01/07 00:42:42;;;;;;;7.57;5.37;;;2.8;99.9;;;;;;;;;
2021/01/07 00:42:52;;;;;;;7.57;5.37;;;2.8;99.9;;;;;;;;;
2021/01/07 00:43:02;;;;;;;7.57;5.37;;;2.8;99.9;;;;;;;;;
2021/01/07 00:43:08;;;;;;;7.57;5.37;;;2.8;99.9;;;;;;;;;
2021/01/07 00:43:13;;;;;;;7.57;5.37;;;2.8;99.9;;;;;;;;;
2021/01/07 00:43:28;;;;;;;7.57;5.37;;;2.8;99.9;;;;;;;;;
2021/01/07 00:43:38;;;;;;;7.57;5.37;;;2.8;99.9;;;;;;;;;
2021/01/07 00:43:54;;;;;;;7.93;6.07;;;2.8;99.9;;;;;;;;;
2021/01/07 00:44:03;;;;;;;7.93;6.07;;;2.8;99.9;;;;;;;;;
2021/01/07 00:44:09;;;;;;;7.93;6.07;;;2.8;99.9;;;;;;;;;
2021/01/07 00:44:14;;;;;;;7.93;6.07;;;2.8;99.9;;;;;;;;;
2021/01/07 00:44:30;;;;;;;7.93;6.07;;;2.8;99.9;;;;;;;;;
2021/01/07 00:44:40;;;;;;;8.1;5.67;;;2.8;99.9;;;;;;;;;
2021/01/07 00:44:55;;;;;;;8.1;5.67;;;2.8;99.9;;;;;;;;;
2021/01/07 00:45:02;;;;;;;8.1;5.67;;;2.8;99.9;;;;;;;;;
2021/01/07 00:45:05;;;;;;;8.1;5.67;;;2.8;99.9;;;;;;;;;
2021/01/07 00:45:16;;;;;;;8.1;5.67;;;2.8;99.9;;;;;;;;;
2021/01/07 00:45:26;;;;;;;8.1;5.67;;;2.8;99.9;;;;;;;;;
2021/01/07 00:45:41;;;;;;;7.93;5.67;;;2.9;99.9;;;;;;;;;
2021/01/07 00:45:52;;;;;;;7.93;5.67;;;2.9;99.9;;;;;;;;;
2021/01/07 00:46:01;;;;;;;7.93;5.67;;;2.9;99.9;;;;;;;;;
2021/01/07 00:46:07;;;;;;;7.93;5.67;;;2.9;99.9;;;;;;;;;
2021/01/07 00:46:17;;;;;;;7.93;5.67;;;2.9;99.9;;;;;;;;;
2021/01/07 00:46:27;;;;;;;7.93;5.67;;;2.9;99.9;;;;;;;;;
2021/01/07 00:46:43;;;;;;;7.3;6.4;;;2.7;99.9;;;;;;;;;
2021/01/07 00:46:53;;;;;;;7.3;6.4;;;2.7;99.9;;;;;;;;;
2021/01/07 00:47:02;;;;;;;7.3;6.4;;;2.7;99.9;;;;;;;;;
2021/01/07 00:47:08;;;;;;;7.3;6.4;;;2.7;99.9;;;;;;;;;
2021/01/07 00:47:13;;;;;;;7.3;6.4;;;2.7;99.9;;;;;;;;;
2021/01/07 00:47:29;;;;;;;7.3;6.4;;;2.7;99.9;;;;;;;;;
2021/01/07 00:47:39;;;;;;;7.3;6.4;;;2.7;99.9;;;;;;;;;
2021/01/07 00:47:54;;;;;;;7.2;5.9;;;2.6;99.9;;;;;;;;;
2021/01/07 00:48:02;;;;;;;7.2;5.9;;;2.6;99.9;;;;;;;;;
2021/01/07 00:48:05;;;;;;;7.2;5.9;;;2.6;99.9;;;;;;;;;
2021/01/07 00:48:15;;;;;;;7.2;5.9;;;2.6;99.9;;;;;;;;;
2021/01/07 00:48:30;;;;;;;7.2;5.9;;;2.6;99.9;;;;;;;;;
2021/01/07 00:48:40;;;;;;;8;7.17;;;2.6;99.9;;;;;;;;;
2021/01/07 00:48:56;;;;;;;8;7.17;;;2.6;99.9;;;;;;;;;
2021/01/07 00:49:02;;;;;;;8;7.17;;;2.6;99.9;;;;;;;;;
2021/01/07 00:49:06;;;;;;;8;7.17;;;2.6;99.9;;;;;;;;;
2021/01/07 00:49:17;;;;;;;8;7.17;;;2.6;99.9;;;;;;;;;
2021/01/07 00:49:27;;;;;;;8;7.17;;;2.6;99.9;;;;;;;;;
2021/01/07 00:49:44;;;;;;;8.1;5.73;;;2.6;99.9;;;;;;;;;
2021/01/07 00:49:52;;;;;;;8.1;5.73;;;2.6;99.9;;;;;;;;;
2021/01/07 00:50:02;;;;;;;8.1;5.73;;;2.6;99.9;;;;;;;;;
2021/01/07 00:50:08;;;;;;;8.1;5.73;;;2.6;99.9;;;;;;;;;
2021/01/07 00:50:18;;;;;;;8.1;5.73;;;2.6;99.9;;;;;;;;;
2021/01/07 00:50:28;;;;;;;8.1;5.73;;;2.6;99.9;;;;;;;;;
2021/01/07 00:50:43;;;;;;;7.7;6.2;;;2.6;99.9;;;;;;;;;
2021/01/07 00:50:54;;;;;;;7.7;6.2;;;2.6;99.9;;;;;;;;;
2021/01/07 00:51:01;;;;;;;7.7;6.2;;;2.6;99.9;;;;;;;;;
2021/01/07 00:51:09;;;;;;;7.7;6.2;;;2.6;99.9;;;;;;;;;
2021/01/07 00:51:14;;;;;;;7.7;6.2;;;2.6;99.9;;;;;;;;;
2021/01/07 00:51:29;;;;;;;7.7;6.2;;;2.6;99.9;;;;;;;;;
2021/01/07 00:51:40;;;;;;;7.7;6.2;;;2.6;99.9;;;;;;;;;
2021/01/07 00:51:55;;;;;;;5.57;5;;;2.7;99.9;;;;;;;;;
2021/01/07 00:52:02;;;;;;;5.57;5;;;2.7;99.9;;;;;;;;;
2021/01/07 00:52:05;;;;;;;5.57;5;;;2.7;99.9;;;;;;;;;
2021/01/07 00:52:16;;;;;;;5.57;5;;;2.7;99.9;;;;;;;;;
2021/01/07 00:52:31;;;;;;;5.57;5;;;2.7;99.9;;;;;;;;;
2021/01/07 00:52:41;;;;;;;5.57;5;;;2.7;99.9;;;;;;;;;
2021/01/07 00:52:56;;;;;;;8.1;6.27;;;2.7;99.9;;;;;;;;;
2021/01/07 00:53:02;;;;;;;8.1;6.27;;;2.7;99.9;;;;;;;;;
2021/01/07 00:53:07;;;;;;;8.1;6.27;;;2.7;99.9;;;;;;;;;
2021/01/07 00:53:12;;;;;;;8.1;6.27;;;2.7;99.9;;;;;;;;;
2021/01/07 00:53:27;;;;;;;8.1;6.27;;;2.7;99.9;;;;;;;;;
2021/01/07 00:53:43;;;;;;;7.23;6.03;;;2.7;99.9;;;;;;;;;
2021/01/07 00:53:53;;;;;;;7.23;6.03;;;2.7;99.9;;;;;;;;;
2021/01/07 00:54:02;;;;;;;7.23;6.03;;;2.7;99.9;;;;;;;;;
2021/01/07 00:54:14;;;;;;;7.23;6.03;;;2.7;99.9;;;;;;;;;
2021/01/07 00:54:14;;;;;;;7.23;6.03;;;2.7;99.9;;;;;;;;;
2021/01/07 00:54:29;;;;;;;7.23;6.03;;;2.7;99.9;;;;;;;;;
2021/01/07 00:54:44;;;;;;;8.63;5.87;;;2.8;99.9;;;;;;;;;
2021/01/07 00:54:54;;;;;;;8.63;5.87;;;2.8;99.9;;;;;;;;;
2021/01/07 00:55:02;;;;;;;8.63;5.87;;;2.8;99.9;;;;;;;;;
2021/01/07 00:55:10;;;;;;;8.63;5.87;;;2.8;99.9;;;;;;;;;
2021/01/07 00:55:15;;;;;;;8.63;5.87;;;2.8;99.9;;;;;;;;;
2021/01/07 00:55:25;;;;;;;8.63;5.87;;;2.8;99.9;;;;;;;;;
2021/01/07 00:55:40;;;;;;;8.63;5.87;;;2.8;99.9;;;;;;;;;
2021/01/07 00:55:56;;;;;;;9.27;5.9;;;2.8;99.9;;;;;;;;;
2021/01/07 00:56:01;;;;;;;9.27;5.9;;;2.8;99.9;;;;;;;;;
2021/01/07 00:56:06;;;;;;;9.27;5.9;;;2.8;99.9;;;;;;;;;
2021/01/07 00:56:16;;;;;;;9.27;5.9;;;2.8;99.9;;;;;;;;;
2021/01/07 00:56:26;;;;;;;9.27;5.9;;;2.8;99.9;;;;;;;;;
2021/01/07 00:56:42;;;;;;;9.27;5.9;;;2.8;99.9;;;;;;;;;
2021/01/07 00:56:57;;;;;;;8.7;6.5;;;2.9;99.9;;;;;;;;;
2021/01/07 00:57:02;;;;;;;8.7;6.5;;;2.9;99.9;;;;;;;;;
2021/01/07 00:57:07;;;;;;;8.7;6.5;;;2.9;99.9;;;;;;;;;
2021/01/07 00:57:12;;;;;;;8.7;6.5;;;2.9;99.9;;;;;;;;;
2021/01/07 00:57:28;;;;;;;8.7;6.5;;;2.9;99.9;;;;;;;;;
2021/01/07 00:57:38;;;;;;;8.7;6.5;;;2.9;99.9;;;;;;;;;
2021/01/07 00:57:53;;;;;;;8.5;6.1;;;2.9;99.9;;;;;;;;;
2021/01/07 00:58:02;;;;;;;8.5;6.1;;;2.9;99.9;;;;;;;;;
2021/01/07 00:58:09;;;;;;;8.5;6.1;;;2.9;99.9;;;;;;;;;
2021/01/07 00:58:14;;;;;;;8.5;6.1;;;2.9;99.9;;;;;;;;;
2021/01/07 00:58:29;;;;;;;8.5;6.1;;;2.9;99.9;;;;;;;;;
2021/01/07 00:58:40;;;;;;;8.5;6.1;;;2.9;99.9;;;;;;;;;
2021/01/07 00:58:55;;;;;;;10.93;6.93;;;2.9;99.9;;;;;;;;;
2021/01/07 00:59:02;;;;;;;10.93;6.93;;;2.9;99.9;;;;;;;;;
2021/01/07 00:59:10;;;;;;;10.93;6.93;;;2.9;99.9;;;;;;;;;
2021/01/07 00:59:15;;;;;;;10.93;6.93;;;2.9;99.9;;;;;;;;;
2021/01/07 00:59:26;;;;;;;10.93;6.93;;;2.9;99.9;;;;;;;;;
2021/01/07 00:59:41;;;;;;;10.93;6.93;;;2.9;99.9;;;;;;;;;
2021/01/07 00:59:51;;;;;;;7.2;6.27;;;3;99.9;;;;;;;;;
2021/01/07 01:00:02;;;;;;;7.2;6.27;;;3;99.9;;;;;;;;;
2021/01/07 01:00:07;;;;;;;7.2;6.27;;;3;99.9;;;;;;;;;
2021/01/07 01:00:12;;;;;;;7.2;6.27;;;3;99.9;;;;;;;;;
2021/01/07 01:00:27;;;;;;;7.2;6.27;;;3;99.9;;;;;;;;;
2021/01/07 01:00:42;;;;;;;7.2;6.27;;;3;99.9;;;;;;;;;
2021/01/07 01:00:53;;;;;;;8.63;5.8;;;3;99.9;;;;;;;;;
2021/01/07 01:01:01;;;;;;;8.63;5.8;;;3;99.9;;;;;;;;;
2021/01/07 01:01:08;;;;;;;8.63;5.8;;;3;99.9;;;;;;;;;
2021/01/07 01:01:13;;;;;;;8.63;5.8;;;3;99.9;;;;;;;;;
2021/01/07 01:01:29;;;;;;;8.63;5.8;;;3;99.9;;;;;;;;;
2021/01/07 01:01:39;;;;;;;8.63;5.8;;;3;99.9;;;;;;;;;
2021/01/07 01:01:54;;;;;;;7.1;6.03;;;3;99.9;;;;;;;;;
2021/01/07 01:02:02;;;;;;;7.1;6.03;;;3;99.9;;;;;;;;;
2021/01/07 01:02:04;;;;;;;7.1;6.03;;;3;99.9;;;;;;;;;
2021/01/07 01:02:15;;;;;;;7.1;6.03;;;3;99.9;;;;;;;;;
2021/01/07 01:02:25;;;;;;;7.1;6.03;;;3;99.9;;;;;;;;;
2021/01/07 01:02:40;;;;;;;7.1;6.03;;;3;99.9;;;;;;;;;
2021/01/07 01:02:56;;;;;;;6.87;5.97;;;3.1;99.9;;;;;;;;;
2021/01/07 01:03:01;;;;;;;6.87;5.97;;;3.1;99.9;;;;;;;;;
2021/01/07 01:03:06;;;;;;;6.87;5.97;;;3.1;99.9;;;;;;;;;
2021/01/07 01:03:16;;;;;;;6.87;5.97;;;3.1;99.9;;;;;;;;;
2021/01/07 01:03:26;;;;;;;6.87;5.97;;;3.1;99.9;;;;;;;;;
2021/01/07 01:03:42;;;;;;;6.87;5.97;;;3.1;99.9;;;;;;;;;
2021/01/07 01:03:57;;;;;;;8.07;6.93;;;3.1;99.9;;;;;;;;;
2021/01/07 01:04:02;;;;;;;8.07;6.93;;;3.1;99.9;;;;;;;;;
2021/01/07 01:04:07;;;;;;;8.07;6.93;;;3.1;99.9;;;;;;;;;
2021/01/07 01:04:12;;;;;;;8.07;6.93;;;3.1;99.9;;;;;;;;;
2021/01/07 01:04:28;;;;;;;8.07;6.93;;;3.1;99.9;;;;;;;;;
2021/01/07 01:04:38;;;;;;;8.07;6.93;;;3.1;99.9;;;;;;;;;
2021/01/07 01:04:53;;;;;;;7.5;6.13;;;3;99.9;;;;;;;;;
2021/01/07 01:05:02;;;;;;;7.5;6.13;;;3;99.9;;;;;;;;;
2021/01/07 01:05:09;;;;;;;7.5;6.13;;;3;99.9;;;;;;;;;
2021/01/07 01:05:14;;;;;;;7.5;6.13;;;3;99.9;;;;;;;;;
2021/01/07 01:05:29;;;;;;;7.5;6.13;;;3;99.9;;;;;;;;;
2021/01/07 01:05:39;;;;;;;7.5;6.13;;;3;99.9;;;;;;;;;
2021/01/07 01:05:55;;;;;;;9.03;6.57;;;3;99.9;;;;;;;;;
2021/01/07 01:06:02;;;;;;;9.03;6.57;;;3;99.9;;;;;;;;;
2021/01/07 01:06:10;;;;;;;9.03;6.57;;;3;99.9;;;;;;;;;
2021/01/07 01:06:15;;;;;;;9.03;6.57;;;3;99.9;;;;;;;;;
2021/01/07 01:06:26;;;;;;;9.03;6.57;;;3;99.9;;;;;;;;;
2021/01/07 01:06:41;;;;;;;9.03;6.57;;;3;99.9;;;;;;;;;
2021/01/07 01:06:51;;;;;;;10.47;7.13;;;3;99.9;;;;;;;;;
2021/01/07 01:07:02;;;;;;;10.47;7.13;;;3;99.9;;;;;;;;;
2021/01/07 01:07:07;;;;;;;10.47;7.13;;;3;99.9;;;;;;;;;
2021/01/07 01:07:17;;;;;;;10.47;7.13;;;3;99.9;;;;;;;;;
2021/01/07 01:07:27;;;;;;;10.47;7.13;;;3;99.9;;;;;;;;;
2021/01/07 01:07:42;;;;;;;10.47;7.13;;;3;99.9;;;;;;;;;
2021/01/07 01:07:52;;;;;;;8.23;6.73;;;2.9;99.9;;;;;;;;;
2021/01/07 01:08:01;;;;;;;8.23;6.73;;;2.9;99.9;;;;;;;;;
2021/01/07 01:08:08;;;;;;;8.23;6.73;;;2.9;99.9;;;;;;;;;
2021/01/07 01:08:13;;;;;;;8.23;6.73;;;2.9;99.9;;;;;;;;;
2021/01/07 01:08:28;;;;;;;8.23;6.73;;;2.9;99.9;;;;;;;;;
2021/01/07 01:08:44;;;;;;;8.23;6.73;;;2.9;99.9;;;;;;;;;
2021/01/07 01:08:54;;;;;;;9.57;6.63;;;3;99.9;;;;;;;;;
2021/01/07 01:09:02;;;;;;;9.57;6.63;;;3;99.9;;;;;;;;;
2021/01/07 01:09:04;;;;;;;9.57;6.63;;;3;99.9;;;;;;;;;
2021/01/07 01:09:14;;;;;;;9.57;6.63;;;3;99.9;;;;;;;;;
2021/01/07 01:09:30;;;;;;;9.57;6.63;;;3;99.9;;;;;;;;;
2021/01/07 01:09:40;;;;;;;9.57;6.63;;;3;99.9;;;;;;;;;
2021/01/07 01:09:55;;;;;;;7.2;6.4;;;3;99.9;;;;;;;;;
2021/01/07 01:10:02;;;;;;;7.2;6.4;;;3;99.9;;;;;;;;;
2021/01/07 01:10:06;;;;;;;7.2;6.4;;;3;99.9;;;;;;;;;
2021/01/07 01:10:16;;;;;;;7.2;6.4;;;3;99.9;;;;;;;;;
2021/01/07 01:10:26;;;;;;;7.2;6.4;;;3;99.9;;;;;;;;;
2021/01/07 01:10:41;;;;;;;7.2;6.4;;;3;99.9;;;;;;;;;
2021/01/07 01:10:57;;;;;;;7.6;6.43;;;3.1;99.9;;;;;;;;;
2021/01/07 01:11:02;;;;;;;7.6;6.43;;;3.1;99.9;;;;;;;;;
2021/01/07 01:11:07;;;;;;;7.6;6.43;;;3.1;99.9;;;;;;;;;
2021/01/07 01:11:17;;;;;;;7.6;6.43;;;3.1;99.9;;;;;;;;;
2021/01/07 01:11:28;;;;;;;7.6;6.43;;;3.1;99.9;;;;;;;;;
2021/01/07 01:11:43;;;;;;;7.6;6.43;;;3.1;99.9;;;;;;;;;
2021/01/07 01:11:53;;;;;;;9.17;6.57;;;3;99.9;;;;;;;;;
2021/01/07 01:12:02;;;;;;;9.17;6.57;;;3;99.9;;;;;;;;;
2021/01/07 01:12:09;;;;;;;9.17;6.57;;;3;99.9;;;;;;;;;
2021/01/07 01:12:19;;;;;;;9.17;6.57;;;3;99.9;;;;;;;;;
2021/01/07 01:12:29;;;;;;;9.17;6.57;;;3;99.9;;;;;;;;;
2021/01/07 01:12:39;;;;;;;9.17;6.57;;;3;99.9;;;;;;;;;
2021/01/07 01:12:55;;;;;;;8.7;6;;;3;99.9;;;;;;;;;
2021/01/07 01:13:01;;;;;;;8.7;6;;;3;99.9;;;;;;;;;
2021/01/07 01:13:10;;;;;;;8.7;6;;;3;99.9;;;;;;;;;
2021/01/07 01:13:15;;;;;;;8.7;6;;;3;99.9;;;;;;;;;
2021/01/07 01:13:30;;;;;;;8.7;6;;;3;99.9;;;;;;;;;
2021/01/07 01:13:41;;;;;;;8.7;6;;;3;99.9;;;;;;;;;
2021/01/07 01:13:56;;;;;;;8.47;6.4;;;2.9;99.9;;;;;;;;;
2021/01/07 01:14:02;;;;;;;8.47;6.4;;;2.9;99.9;;;;;;;;;
2021/01/07 01:14:06;;;;;;;8.47;6.4;;;2.9;99.9;;;;;;;;;
2021/01/07 01:14:17;;;;;;;8.47;6.4;;;2.9;99.9;;;;;;;;;
2021/01/07 01:14:32;;;;;;;8.47;6.4;;;2.9;99.9;;;;;;;;;
2021/01/07 01:14:42;;;;;;;8.47;6.4;;;2.9;99.9;;;;;;;;;
2021/01/07 01:14:52;;;;;;;8.83;6.5;;;2.9;99.9;;;;;;;;;
2021/01/07 01:15:02;;;;;;;8.83;6.5;;;2.9;99.9;;;;;;;;;
2021/01/07 01:15:08;;;;;;;8.83;6.5;;;2.9;99.9;;;;;;;;;
2021/01/07 01:15:13;;;;;;;8.83;6.5;;;2.9;99.9;;;;;;;;;
2021/01/07 01:15:28;;;;;;;8.83;6.5;;;2.9;99.9;;;;;;;;;
2021/01/07 01:15:43;;;;;;;8.83;6.5;;;2.9;99.9;;;;;;;;;
2021/01/07 01:15:54;;;;;;;7.07;6;;;3;99.9;;;;;;;;;
2021/01/07 01:16:02;;;;;;;7.07;6;;;3;99.9;;;;;;;;;
2021/01/07 01:16:09;;;;;;;7.07;6;;;3;99.9;;;;;;;;;
2021/01/07 01:16:14;;;;;;;7.07;6;;;3;99.9;;;;;;;;;
2021/01/07 01:16:30;;;;;;;7.07;6;;;3;99.9;;;;;;;;;
2021/01/07 01:16:45;;;;;;;7.07;6;;;3;99.9;;;;;;;;;
2021/01/07 01:16:55;;;;;;;10.07;6.43;;;3;99.9;;;;;;;;;
2021/01/07 01:17:02;;;;;;;10.07;6.43;;;3;99.9;;;;;;;;;
2021/01/07 01:17:05;;;;;;;10.07;6.43;;;3;99.9;;;;;;;;;
2021/01/07 01:17:16;;;;;;;10.07;6.43;;;3;99.9;;;;;;;;;
2021/01/07 01:17:26;;;;;;;10.07;6.43;;;3;99.9;;;;;;;;;
2021/01/07 01:17:41;;;;;;;10.07;6.43;;;3;99.9;;;;;;;;;